sensor_id;sensor_type;location;lat;lon;timestamp;temperature;humidity
22526;DHT22;11429;50.842;4.386;2023-07-28T00:01:38;19.10;99.90
22526;DHT22;11429;50.842;4.386;2023-07-28T00:04:04;19.00;99.90
22526;DHT22;11429;50.842;4.386;2023-07-28T00:06:33;18.90;99.90
22526;DHT22;11429;50.842;4.386;2023-07-28T00:08:59;18.70;99.90
22526;DHT22;11429;50.842;4.386;2023-07-28T00:11:24;18.60;99.90
22526;DHT22;11429;50.842;4.386;2023-07-28T00:13:50;18.60;99.90
22526;DHT22;11429;50.842;4.386;2023-07-28T00:16:16;18.70;99.90
22526;DHT22;11429;50.842;4.386;2023-07-28T00:18:41;18.80;99.90
22526;DHT22;11429;50.842;4.386;2023-07-28T00:21:07;18.70;99.90
22526;DHT22;11429;50.842;4.386;2023-07-28T00:23:33;18.70;99.90
22526;DHT22;11429;50.842;4.386;2023-07-28T00:25:58;18.70;99.90
22526;DHT22;11429;50.842;4.386;2023-07-28T00:28:24;18.70;99.90
22526;DHT22;11429;50.842;4.386;2023-07-28T00:30:50;18.70;99.90
22526;DHT22;11429;50.842;4.386;2023-07-28T00:33:16;18.60;99.90
22526;DHT22;11429;50.842;4.386;2023-07-28T00:35:42;18.60;99.90
22526;DHT22;11429;50.842;4.386;2023-07-28T00:38:09;18.60;99.90
22526;DHT22;11429;50.842;4.386;2023-07-28T00:40:35;18.70;99.90
22526;DHT22;11429;50.842;4.386;2023-07-28T00:43:01;18.60;99.90
22526;DHT22;11429;50.842;4.386;2023-07-28T00:45:28;18.70;99.90
22526;DHT22;11429;50.842;4.386;2023-07-28T00:47:55;18.70;99.90
22526;DHT22;11429;50.842;4.386;2023-07-28T00:50:23;18.70;99.90
22526;DHT22;11429;50.842;4.386;2023-07-28T00:52:49;18.70;99.90
22526;DHT22;11429;50.842;4.386;2023-07-28T00:55:15;18.70;99.90
22526;DHT22;11429;50.842;4.386;2023-07-28T00:57:41;18.60;99.90
22526;DHT22;11429;50.842;4.386;2023-07-28T01:00:08;18.70;99.90
22526;DHT22;11429;50.842;4.386;2023-07-28T01:02:35;18.60;99.90
22526;DHT22;11429;50.842;4.386;2023-07-28T01:05:01;18.60;99.90
22526;DHT22;11429;50.842;4.386;2023-07-28T01:07:30;18.50;99.90
22526;DHT22;11429;50.842;4.386;2023-07-28T01:10:34;18.70;99.90
22526;DHT22;11429;50.842;4.386;2023-07-28T01:13:00;18.60;99.90
22526;DHT22;11429;50.842;4.386;2023-07-28T01:15:26;18.50;99.90
22526;DHT22;11429;50.842;4.386;2023-07-28T01:17:52;18.50;99.90
22526;DHT22;11429;50.842;4.386;2023-07-28T01:20:18;18.60;99.90
22526;DHT22;11429;50.842;4.386;2023-07-28T01:28:17;18.60;99.90
22526;DHT22;11429;50.842;4.386;2023-07-28T01:30:43;18.50;99.90
22526;DHT22;11429;50.842;4.386;2023-07-28T01:33:09;18.50;99.90
22526;DHT22;11429;50.842;4.386;2023-07-28T01:35:38;18.50;99.90
22526;DHT22;11429;50.842;4.386;2023-07-28T01:38:04;18.50;99.90
22526;DHT22;11429;50.842;4.386;2023-07-28T01:40:30;18.60;99.90
22526;DHT22;11429;50.842;4.386;2023-07-28T01:42:56;18.60;99.90
22526;DHT22;11429;50.842;4.386;2023-07-28T01:45:22;18.60;99.90
22526;DHT22;11429;50.842;4.386;2023-07-28T01:47:47;18.60;99.90
22526;DHT22;11429;50.842;4.386;2023-07-28T01:50:13;18.70;99.90
22526;DHT22;11429;50.842;4.386;2023-07-28T01:52:39;18.70;99.90
22526;DHT22;11429;50.842;4.386;2023-07-28T01:55:05;18.60;99.90
22526;DHT22;11429;50.842;4.386;2023-07-28T01:57:38;18.60;99.90
22526;DHT22;11429;50.842;4.386;2023-07-28T02:00:04;18.70;99.90
22526;DHT22;11429;50.842;4.386;2023-07-28T02:02:30;18.60;99.90
22526;DHT22;11429;50.842;4.386;2023-07-28T02:04:56;18.60;99.90
22526;DHT22;11429;50.842;4.386;2023-07-28T02:07:21;18.50;99.90
22526;DHT22;11429;50.842;4.386;2023-07-28T02:09:47;18.60;99.90
22526;DHT22;11429;50.842;4.386;2023-07-28T02:12:13;18.70;99.90
22526;DHT22;11429;50.842;4.386;2023-07-28T02:14:40;18.60;99.90
22526;DHT22;11429;50.842;4.386;2023-07-28T02:17:06;18.60;99.90
22526;DHT22;11429;50.842;4.386;2023-07-28T02:19:31;18.60;99.90
22526;DHT22;11429;50.842;4.386;2023-07-28T02:21:57;18.60;99.90
22526;DHT22;11429;50.842;4.386;2023-07-28T02:24:23;18.60;99.90
22526;DHT22;11429;50.842;4.386;2023-07-28T02:26:48;18.60;99.90
22526;DHT22;11429;50.842;4.386;2023-07-28T02:29:14;18.70;99.90
22526;DHT22;11429;50.842;4.386;2023-07-28T02:31:40;18.60;99.90
22526;DHT22;11429;50.842;4.386;2023-07-28T02:34:05;18.70;99.90
22526;DHT22;11429;50.842;4.386;2023-07-28T02:36:31;18.60;99.90
22526;DHT22;11429;50.842;4.386;2023-07-28T02:38:57;18.70;99.90
22526;DHT22;11429;50.842;4.386;2023-07-28T02:41:22;18.60;99.90
22526;DHT22;11429;50.842;4.386;2023-07-28T02:43:48;18.60;99.90
22526;DHT22;11429;50.842;4.386;2023-07-28T02:46:14;18.70;99.90
22526;DHT22;11429;50.842;4.386;2023-07-28T02:48:39;18.70;99.90
22526;DHT22;11429;50.842;4.386;2023-07-28T02:51:05;18.70;99.90
22526;DHT22;11429;50.842;4.386;2023-07-28T02:53:31;18.60;99.90
22526;DHT22;11429;50.842;4.386;2023-07-28T02:55:56;18.70;99.90
22526;DHT22;11429;50.842;4.386;2023-07-28T02:58:22;18.70;99.90
22526;DHT22;11429;50.842;4.386;2023-07-28T03:00:51;18.80;99.90
22526;DHT22;11429;50.842;4.386;2023-07-28T03:03:17;18.80;99.90
22526;DHT22;11429;50.842;4.386;2023-07-28T03:05:43;18.60;99.90
22526;DHT22;11429;50.842;4.386;2023-07-28T03:08:09;18.70;99.90
22526;DHT22;11429;50.842;4.386;2023-07-28T03:10:34;18.70;99.90
22526;DHT22;11429;50.842;4.386;2023-07-28T03:13:00;18.70;99.90
22526;DHT22;11429;50.842;4.386;2023-07-28T03:15:26;18.60;99.90
22526;DHT22;11429;50.842;4.386;2023-07-28T03:17:51;18.60;99.90
22526;DHT22;11429;50.842;4.386;2023-07-28T03:20:18;18.60;99.90
22526;DHT22;11429;50.842;4.386;2023-07-28T03:22:44;18.70;99.90
22526;DHT22;11429;50.842;4.386;2023-07-28T03:25:10;18.70;99.90
22526;DHT22;11429;50.842;4.386;2023-07-28T03:27:39;18.90;99.90
22526;DHT22;11429;50.842;4.386;2023-07-28T03:30:05;18.80;99.90
22526;DHT22;11429;50.842;4.386;2023-07-28T03:32:37;18.90;99.90
22526;DHT22;11429;50.842;4.386;2023-07-28T03:35:03;18.70;99.90
22526;DHT22;11429;50.842;4.386;2023-07-28T03:37:31;18.70;99.90
22526;DHT22;11429;50.842;4.386;2023-07-28T03:39:57;18.60;99.90
22526;DHT22;11429;50.842;4.386;2023-07-28T03:42:23;18.60;99.90
22526;DHT22;11429;50.842;4.386;2023-07-28T03:44:49;18.80;99.90
22526;DHT22;11429;50.842;4.386;2023-07-28T03:47:15;18.70;99.90
22526;DHT22;11429;50.842;4.386;2023-07-28T03:49:40;18.70;99.90
22526;DHT22;11429;50.842;4.386;2023-07-28T03:52:06;18.60;99.90
22526;DHT22;11429;50.842;4.386;2023-07-28T03:54:32;18.60;99.90
22526;DHT22;11429;50.842;4.386;2023-07-28T03:56:57;18.60;99.90
22526;DHT22;11429;50.842;4.386;2023-07-28T03:59:23;18.60;99.90
22526;DHT22;11429;50.842;4.386;2023-07-28T04:01:49;18.90;99.90
22526;DHT22;11429;50.842;4.386;2023-07-28T04:04:15;18.80;99.90
22526;DHT22;11429;50.842;4.386;2023-07-28T04:06:48;18.70;99.90
22526;DHT22;11429;50.842;4.386;2023-07-28T04:09:19;18.70;99.90
22526;DHT22;11429;50.842;4.386;2023-07-28T04:11:45;18.70;99.90
22526;DHT22;11429;50.842;4.386;2023-07-28T04:14:11;18.80;99.90
22526;DHT22;11429;50.842;4.386;2023-07-28T04:16:37;18.80;99.90
22526;DHT22;11429;50.842;4.386;2023-07-28T04:19:03;18.90;99.90
22526;DHT22;11429;50.842;4.386;2023-07-28T04:21:29;18.90;99.90
22526;DHT22;11429;50.842;4.386;2023-07-28T04:23:54;18.90;99.90
22526;DHT22;11429;50.842;4.386;2023-07-28T04:26:20;18.90;99.90
22526;DHT22;11429;50.842;4.386;2023-07-28T04:28:46;19.00;99.90
22526;DHT22;11429;50.842;4.386;2023-07-28T04:31:12;19.00;99.90
22526;DHT22;11429;50.842;4.386;2023-07-28T04:33:40;18.90;99.90
22526;DHT22;11429;50.842;4.386;2023-07-28T04:36:06;18.90;99.90
22526;DHT22;11429;50.842;4.386;2023-07-28T04:38:32;18.80;99.90
22526;DHT22;11429;50.842;4.386;2023-07-28T04:40:57;18.70;99.90
22526;DHT22;11429;50.842;4.386;2023-07-28T04:43:23;18.60;99.90
22526;DHT22;11429;50.842;4.386;2023-07-28T04:45:49;18.70;99.90
22526;DHT22;11429;50.842;4.386;2023-07-28T04:48:14;18.70;99.90
22526;DHT22;11429;50.842;4.386;2023-07-28T04:50:40;18.90;99.90
22526;DHT22;11429;50.842;4.386;2023-07-28T04:53:06;18.90;99.90
22526;DHT22;11429;50.842;4.386;2023-07-28T04:55:31;18.90;99.90
22526;DHT22;11429;50.842;4.386;2023-07-28T04:57:57;18.90;99.90
22526;DHT22;11429;50.842;4.386;2023-07-28T05:00:23;18.90;99.90
22526;DHT22;11429;50.842;4.386;2023-07-28T05:02:49;18.90;99.90
22526;DHT22;11429;50.842;4.386;2023-07-28T05:05:15;19.00;99.90
22526;DHT22;11429;50.842;4.386;2023-07-28T05:07:41;18.90;99.90
22526;DHT22;11429;50.842;4.386;2023-07-28T05:10:07;18.90;99.90
22526;DHT22;11429;50.842;4.386;2023-07-28T05:12:33;18.90;99.90
22526;DHT22;11429;50.842;4.386;2023-07-28T05:14:59;19.00;99.90
22526;DHT22;11429;50.842;4.386;2023-07-28T05:17:24;19.00;99.90
22526;DHT22;11429;50.842;4.386;2023-07-28T05:19:50;19.00;99.90
22526;DHT22;11429;50.842;4.386;2023-07-28T05:22:16;19.20;99.90
22526;DHT22;11429;50.842;4.386;2023-07-28T05:24:43;19.10;99.90
22526;DHT22;11429;50.842;4.386;2023-07-28T05:27:09;19.00;99.90
22526;DHT22;11429;50.842;4.386;2023-07-28T05:29:35;19.00;99.90
22526;DHT22;11429;50.842;4.386;2023-07-28T05:32:01;19.10;99.90
22526;DHT22;11429;50.842;4.386;2023-07-28T05:34:27;19.00;99.90
22526;DHT22;11429;50.842;4.386;2023-07-28T05:36:52;19.10;99.90
22526;DHT22;11429;50.842;4.386;2023-07-28T05:39:18;19.10;99.90
22526;DHT22;11429;50.842;4.386;2023-07-28T05:41:44;19.10;99.90
22526;DHT22;11429;50.842;4.386;2023-07-28T05:44:10;19.10;99.90
22526;DHT22;11429;50.842;4.386;2023-07-28T05:46:35;19.10;99.90
22526;DHT22;11429;50.842;4.386;2023-07-28T05:49:01;19.10;99.90
22526;DHT22;11429;50.842;4.386;2023-07-28T05:51:27;19.20;99.90
22526;DHT22;11429;50.842;4.386;2023-07-28T05:53:54;19.30;99.90
22526;DHT22;11429;50.842;4.386;2023-07-28T05:56:19;19.30;99.90
22526;DHT22;11429;50.842;4.386;2023-07-28T05:58:46;19.30;99.90
22526;DHT22;11429;50.842;4.386;2023-07-28T06:01:12;19.20;99.90
22526;DHT22;11429;50.842;4.386;2023-07-28T06:03:38;19.10;99.90
22526;DHT22;11429;50.842;4.386;2023-07-28T06:06:04;19.20;99.90
22526;DHT22;11429;50.842;4.386;2023-07-28T06:08:30;19.30;99.90
22526;DHT22;11429;50.842;4.386;2023-07-28T06:10:55;19.40;99.90
22526;DHT22;11429;50.842;4.386;2023-07-28T06:13:21;19.20;99.90
22526;DHT22;11429;50.842;4.386;2023-07-28T06:15:47;19.40;99.90
22526;DHT22;11429;50.842;4.386;2023-07-28T06:18:13;19.40;99.90
22526;DHT22;11429;50.842;4.386;2023-07-28T06:20:44;19.40;99.90
22526;DHT22;11429;50.842;4.386;2023-07-28T06:23:10;19.30;99.90
22526;DHT22;11429;50.842;4.386;2023-07-28T06:25:36;19.40;99.90
22526;DHT22;11429;50.842;4.386;2023-07-28T06:28:08;19.40;99.90
22526;DHT22;11429;50.842;4.386;2023-07-28T06:30:33;19.50;99.90
22526;DHT22;11429;50.842;4.386;2023-07-28T06:32:59;19.70;99.90
22526;DHT22;11429;50.842;4.386;2023-07-28T06:35:24;19.70;99.90
22526;DHT22;11429;50.842;4.386;2023-07-28T06:37:50;20.00;99.90
22526;DHT22;11429;50.842;4.386;2023-07-28T06:40:16;20.30;99.90
22526;DHT22;11429;50.842;4.386;2023-07-28T06:42:41;20.80;99.90
22526;DHT22;11429;50.842;4.386;2023-07-28T06:45:07;21.10;99.90
22526;DHT22;11429;50.842;4.386;2023-07-28T06:47:33;21.40;99.90
22526;DHT22;11429;50.842;4.386;2023-07-28T06:49:59;21.20;99.90
22526;DHT22;11429;50.842;4.386;2023-07-28T06:52:25;21.20;99.90
22526;DHT22;11429;50.842;4.386;2023-07-28T06:54:51;21.30;99.90
22526;DHT22;11429;50.842;4.386;2023-07-28T06:57:16;20.90;99.90
22526;DHT22;11429;50.842;4.386;2023-07-28T06:59:42;20.80;99.90
22526;DHT22;11429;50.842;4.386;2023-07-28T07:02:08;20.70;99.90
22526;DHT22;11429;50.842;4.386;2023-07-28T07:04:34;20.40;99.90
22526;DHT22;11429;50.842;4.386;2023-07-28T07:07:00;20.10;99.90
22526;DHT22;11429;50.842;4.386;2023-07-28T07:09:26;20.00;99.90
22526;DHT22;11429;50.842;4.386;2023-07-28T07:11:51;19.90;99.90
22526;DHT22;11429;50.842;4.386;2023-07-28T07:14:17;20.00;99.90
22526;DHT22;11429;50.842;4.386;2023-07-28T07:16:44;19.90;99.90
22526;DHT22;11429;50.842;4.386;2023-07-28T07:19:10;19.90;99.90
22526;DHT22;11429;50.842;4.386;2023-07-28T07:21:35;20.00;99.90
22526;DHT22;11429;50.842;4.386;2023-07-28T07:24:03;20.30;99.90
22526;DHT22;11429;50.842;4.386;2023-07-28T07:26:29;20.90;99.90
22526;DHT22;11429;50.842;4.386;2023-07-28T07:28:57;21.50;99.90
22526;DHT22;11429;50.842;4.386;2023-07-28T07:39:02;21.10;99.90
22526;DHT22;11429;50.842;4.386;2023-07-28T07:41:28;21.00;99.90
22526;DHT22;11429;50.842;4.386;2023-07-28T07:43:55;21.10;99.90
22526;DHT22;11429;50.842;4.386;2023-07-28T07:46:21;21.00;99.90
22526;DHT22;11429;50.842;4.386;2023-07-28T07:48:46;21.40;99.90
22526;DHT22;11429;50.842;4.386;2023-07-28T07:51:12;21.40;99.90
22526;DHT22;11429;50.842;4.386;2023-07-28T07:53:38;21.60;99.90
22526;DHT22;11429;50.842;4.386;2023-07-28T07:56:05;21.60;99.90
22526;DHT22;11429;50.842;4.386;2023-07-28T07:58:31;22.30;99.90
22526;DHT22;11429;50.842;4.386;2023-07-28T08:00:57;22.70;99.90
22526;DHT22;11429;50.842;4.386;2023-07-28T08:03:23;22.90;99.90
22526;DHT22;11429;50.842;4.386;2023-07-28T08:05:50;23.00;99.90
22526;DHT22;11429;50.842;4.386;2023-07-28T08:08:16;22.90;99.90
22526;DHT22;11429;50.842;4.386;2023-07-28T08:10:43;22.80;99.90
22526;DHT22;11429;50.842;4.386;2023-07-28T08:13:09;22.70;99.90
22526;DHT22;11429;50.842;4.386;2023-07-28T08:15:35;22.60;99.90
22526;DHT22;11429;50.842;4.386;2023-07-28T08:18:00;22.50;99.90
22526;DHT22;11429;50.842;4.386;2023-07-28T08:20:26;22.30;99.90
22526;DHT22;11429;50.842;4.386;2023-07-28T08:22:52;22.20;99.90
22526;DHT22;11429;50.842;4.386;2023-07-28T08:25:18;22.10;99.90
22526;DHT22;11429;50.842;4.386;2023-07-28T08:27:44;21.80;99.90
22526;DHT22;11429;50.842;4.386;2023-07-28T08:30:10;21.90;99.90
22526;DHT22;11429;50.842;4.386;2023-07-28T08:32:36;22.00;99.90
22526;DHT22;11429;50.842;4.386;2023-07-28T08:35:02;22.10;99.90
22526;DHT22;11429;50.842;4.386;2023-07-28T08:37:28;22.00;99.90
22526;DHT22;11429;50.842;4.386;2023-07-28T08:39:54;22.00;99.90
22526;DHT22;11429;50.842;4.386;2023-07-28T08:42:21;21.40;99.90
22526;DHT22;11429;50.842;4.386;2023-07-28T08:44:48;21.10;99.90
22526;DHT22;11429;50.842;4.386;2023-07-28T08:47:14;21.10;99.90
22526;DHT22;11429;50.842;4.386;2023-07-28T08:49:40;21.20;99.90
22526;DHT22;11429;50.842;4.386;2023-07-28T08:52:06;21.60;99.90
22526;DHT22;11429;50.842;4.386;2023-07-28T08:54:31;21.80;99.90
22526;DHT22;11429;50.842;4.386;2023-07-28T08:56:58;21.60;99.90
22526;DHT22;11429;50.842;4.386;2023-07-28T08:59:25;21.20;99.90
22526;DHT22;11429;50.842;4.386;2023-07-28T09:01:52;20.70;99.90
22526;DHT22;11429;50.842;4.386;2023-07-28T09:04:20;20.60;99.90
22526;DHT22;11429;50.842;4.386;2023-07-28T09:06:49;20.90;99.90
22526;DHT22;11429;50.842;4.386;2023-07-28T09:09:16;21.10;99.90
22526;DHT22;11429;50.842;4.386;2023-07-28T09:11:50;21.50;99.90
22526;DHT22;11429;50.842;4.386;2023-07-28T09:14:21;21.70;99.90
22526;DHT22;11429;50.842;4.386;2023-07-28T09:16:55;21.50;99.90
22526;DHT22;11429;50.842;4.386;2023-07-28T09:19:22;21.40;99.90
22526;DHT22;11429;50.842;4.386;2023-07-28T09:21:58;21.60;99.90
22526;DHT22;11429;50.842;4.386;2023-07-28T09:24:33;21.90;99.90
22526;DHT22;11429;50.842;4.386;2023-07-28T09:27:00;21.80;99.90
22526;DHT22;11429;50.842;4.386;2023-07-28T09:29:26;21.80;99.90
22526;DHT22;11429;50.842;4.386;2023-07-28T09:32:03;21.80;99.90
22526;DHT22;11429;50.842;4.386;2023-07-28T09:34:30;21.70;99.90
22526;DHT22;11429;50.842;4.386;2023-07-28T09:36:58;21.50;99.90
22526;DHT22;11429;50.842;4.386;2023-07-28T09:39:24;21.30;99.90
22526;DHT22;11429;50.842;4.386;2023-07-28T09:41:51;21.70;99.90
22526;DHT22;11429;50.842;4.386;2023-07-28T09:44:17;21.80;99.90
22526;DHT22;11429;50.842;4.386;2023-07-28T09:46:53;22.20;99.90
22526;DHT22;11429;50.842;4.386;2023-07-28T09:49:24;22.70;99.90
22526;DHT22;11429;50.842;4.386;2023-07-28T09:51:54;23.10;99.90
22526;DHT22;11429;50.842;4.386;2023-07-28T09:54:28;23.00;99.90
22526;DHT22;11429;50.842;4.386;2023-07-28T09:56:59;22.50;99.90
22526;DHT22;11429;50.842;4.386;2023-07-28T09:59:41;22.40;99.90
22526;DHT22;11429;50.842;4.386;2023-07-28T10:02:08;22.20;99.90
22526;DHT22;11429;50.842;4.386;2023-07-28T10:04:35;22.40;99.90
22526;DHT22;11429;50.842;4.386;2023-07-28T10:07:02;22.30;99.90
22526;DHT22;11429;50.842;4.386;2023-07-28T10:09:30;22.30;99.90
22526;DHT22;11429;50.842;4.386;2023-07-28T10:11:56;22.40;99.90
22526;DHT22;11429;50.842;4.386;2023-07-28T10:14:26;22.30;99.90
22526;DHT22;11429;50.842;4.386;2023-07-28T10:16:53;22.50;99.90
22526;DHT22;11429;50.842;4.386;2023-07-28T10:19:20;22.90;99.90
22526;DHT22;11429;50.842;4.386;2023-07-28T10:21:46;22.80;99.90
22526;DHT22;11429;50.842;4.386;2023-07-28T10:24:12;23.00;99.90
22526;DHT22;11429;50.842;4.386;2023-07-28T10:26:40;22.90;99.90
22526;DHT22;11429;50.842;4.386;2023-07-28T10:29:14;22.80;99.90
22526;DHT22;11429;50.842;4.386;2023-07-28T10:31:53;22.70;99.90
22526;DHT22;11429;50.842;4.386;2023-07-28T10:34:19;23.20;99.90
22526;DHT22;11429;50.842;4.386;2023-07-28T10:36:49;23.40;99.90
22526;DHT22;11429;50.842;4.386;2023-07-28T10:39:21;23.70;99.90
22526;DHT22;11429;50.842;4.386;2023-07-28T10:44:29;23.90;99.90
22526;DHT22;11429;50.842;4.386;2023-07-28T10:46:55;23.80;99.90
22526;DHT22;11429;50.842;4.386;2023-07-28T10:49:20;23.90;99.90
22526;DHT22;11429;50.842;4.386;2023-07-28T10:51:46;24.60;99.90
22526;DHT22;11429;50.842;4.386;2023-07-28T10:54:12;25.40;99.90
22526;DHT22;11429;50.842;4.386;2023-07-28T10:56:42;25.60;99.90
22526;DHT22;11429;50.842;4.386;2023-07-28T10:59:08;25.10;99.90
22526;DHT22;11429;50.842;4.386;2023-07-28T11:01:38;24.50;99.90
22526;DHT22;11429;50.842;4.386;2023-07-28T11:04:13;24.50;99.90
22526;DHT22;11429;50.842;4.386;2023-07-28T11:06:44;24.50;99.90
22526;DHT22;11429;50.842;4.386;2023-07-28T11:11:58;24.70;99.90
22526;DHT22;11429;50.842;4.386;2023-07-28T11:14:24;24.70;99.90
22526;DHT22;11429;50.842;4.386;2023-07-28T11:16:51;24.80;99.90
22526;DHT22;11429;50.842;4.386;2023-07-28T11:19:17;24.80;99.90
22526;DHT22;11429;50.842;4.386;2023-07-28T11:21:49;25.10;99.90
22526;DHT22;11429;50.842;4.386;2023-07-28T11:24:21;24.90;99.90
22526;DHT22;11429;50.842;4.386;2023-07-28T11:26:48;25.20;99.90
22526;DHT22;11429;50.842;4.386;2023-07-28T11:29:15;25.10;99.90
22526;DHT22;11429;50.842;4.386;2023-07-28T11:31:42;25.00;99.90
22526;DHT22;11429;50.842;4.386;2023-07-28T11:34:14;24.50;99.90
22526;DHT22;11429;50.842;4.386;2023-07-28T11:36:41;24.60;99.90
22526;DHT22;11429;50.842;4.386;2023-07-28T11:39:07;24.60;99.90
22526;DHT22;11429;50.842;4.386;2023-07-28T11:41:34;25.00;99.90
22526;DHT22;11429;50.842;4.386;2023-07-28T11:44:00;26.10;99.90
22526;DHT22;11429;50.842;4.386;2023-07-28T11:46:37;26.80;99.90
22526;DHT22;11429;50.842;4.386;2023-07-28T11:49:17;26.90;99.90
22526;DHT22;11429;50.842;4.386;2023-07-28T11:51:54;26.40;99.90
22526;DHT22;11429;50.842;4.386;2023-07-28T11:54:25;25.80;99.90
22526;DHT22;11429;50.842;4.386;2023-07-28T11:56:54;25.00;99.90
22526;DHT22;11429;50.842;4.386;2023-07-28T11:59:20;24.90;99.90
22526;DHT22;11429;50.842;4.386;2023-07-28T12:02:02;24.60;99.90
22526;DHT22;11429;50.842;4.386;2023-07-28T12:04:31;24.80;99.90
22526;DHT22;11429;50.842;4.386;2023-07-28T12:07:05;25.30;99.90
22526;DHT22;11429;50.842;4.386;2023-07-28T12:12:20;25.80;99.90
22526;DHT22;11429;50.842;4.386;2023-07-28T12:14:46;25.50;99.90
22526;DHT22;11429;50.842;4.386;2023-07-28T12:17:17;25.50;99.90
22526;DHT22;11429;50.842;4.386;2023-07-28T12:22:24;25.70;99.90
22526;DHT22;11429;50.842;4.386;2023-07-28T12:24:49;25.70;99.90
22526;DHT22;11429;50.842;4.386;2023-07-28T12:27:15;25.90;99.90
22526;DHT22;11429;50.842;4.386;2023-07-28T12:29:41;26.50;99.90
22526;DHT22;11429;50.842;4.386;2023-07-28T12:32:07;26.60;99.90
22526;DHT22;11429;50.842;4.386;2023-07-28T12:34:33;26.50;99.90
22526;DHT22;11429;50.842;4.386;2023-07-28T12:36:59;26.00;99.90
22526;DHT22;11429;50.842;4.386;2023-07-28T12:39:25;25.90;99.90
22526;DHT22;11429;50.842;4.386;2023-07-28T12:41:51;25.80;99.90
22526;DHT22;11429;50.842;4.386;2023-07-28T12:44:20;25.70;99.90
22526;DHT22;11429;50.842;4.386;2023-07-28T12:46:46;25.60;99.90
22526;DHT22;11429;50.842;4.386;2023-07-28T12:49:12;25.80;99.90
22526;DHT22;11429;50.842;4.386;2023-07-28T12:51:38;26.00;99.90
22526;DHT22;11429;50.842;4.386;2023-07-28T12:54:03;26.10;99.90
22526;DHT22;11429;50.842;4.386;2023-07-28T12:56:30;26.30;99.90
22526;DHT22;11429;50.842;4.386;2023-07-28T12:58:56;26.30;99.90
22526;DHT22;11429;50.842;4.386;2023-07-28T13:01:21;26.40;99.90
22526;DHT22;11429;50.842;4.386;2023-07-28T13:03:47;26.10;99.90
22526;DHT22;11429;50.842;4.386;2023-07-28T13:06:13;26.20;99.90
22526;DHT22;11429;50.842;4.386;2023-07-28T13:08:38;26.30;99.90
22526;DHT22;11429;50.842;4.386;2023-07-28T13:11:04;26.40;99.90
22526;DHT22;11429;50.842;4.386;2023-07-28T13:13:30;26.50;99.90
22526;DHT22;11429;50.842;4.386;2023-07-28T13:15:56;26.30;99.90
22526;DHT22;11429;50.842;4.386;2023-07-28T13:18:23;26.20;99.90
22526;DHT22;11429;50.842;4.386;2023-07-28T13:20:50;26.30;99.90
22526;DHT22;11429;50.842;4.386;2023-07-28T13:23:16;26.20;99.90
22526;DHT22;11429;50.842;4.386;2023-07-28T13:25:42;26.40;99.90
22526;DHT22;11429;50.842;4.386;2023-07-28T13:28:08;26.10;99.90
22526;DHT22;11429;50.842;4.386;2023-07-28T13:30:33;25.70;99.90
22526;DHT22;11429;50.842;4.386;2023-07-28T13:32:59;25.50;99.90
22526;DHT22;11429;50.842;4.386;2023-07-28T13:35:26;25.40;99.90
22526;DHT22;11429;50.842;4.386;2023-07-28T13:37:51;25.60;99.90
22526;DHT22;11429;50.842;4.386;2023-07-28T13:40:17;25.70;99.90
22526;DHT22;11429;50.842;4.386;2023-07-28T13:42:43;25.80;99.90
22526;DHT22;11429;50.842;4.386;2023-07-28T13:45:09;26.30;99.90
22526;DHT22;11429;50.842;4.386;2023-07-28T13:47:35;26.30;99.90
22526;DHT22;11429;50.842;4.386;2023-07-28T13:50:00;26.30;99.90
22526;DHT22;11429;50.842;4.386;2023-07-28T13:52:26;26.00;99.90
22526;DHT22;11429;50.842;4.386;2023-07-28T13:54:52;25.50;99.90
22526;DHT22;11429;50.842;4.386;2023-07-28T13:57:18;25.70;99.90
22526;DHT22;11429;50.842;4.386;2023-07-28T13:59:44;25.50;99.90
22526;DHT22;11429;50.842;4.386;2023-07-28T14:02:09;25.50;99.90
22526;DHT22;11429;50.842;4.386;2023-07-28T14:04:35;25.60;99.90
22526;DHT22;11429;50.842;4.386;2023-07-28T14:07:01;25.60;99.90
22526;DHT22;11429;50.842;4.386;2023-07-28T14:09:27;25.80;99.90
22526;DHT22;11429;50.842;4.386;2023-07-28T14:11:52;25.90;99.90
22526;DHT22;11429;50.842;4.386;2023-07-28T14:14:18;26.00;99.90
22526;DHT22;11429;50.842;4.386;2023-07-28T14:16:43;26.00;99.90
22526;DHT22;11429;50.842;4.386;2023-07-28T14:19:09;26.00;99.90
22526;DHT22;11429;50.842;4.386;2023-07-28T14:21:38;25.80;99.90
22526;DHT22;11429;50.842;4.386;2023-07-28T14:24:07;25.60;99.90
22526;DHT22;11429;50.842;4.386;2023-07-28T14:26:33;25.70;99.90
22526;DHT22;11429;50.842;4.386;2023-07-28T14:28:58;25.70;99.90
22526;DHT22;11429;50.842;4.386;2023-07-28T14:31:24;25.80;99.90
22526;DHT22;11429;50.842;4.386;2023-07-28T14:33:50;25.90;99.90
22526;DHT22;11429;50.842;4.386;2023-07-28T14:36:16;25.90;99.90
22526;DHT22;11429;50.842;4.386;2023-07-28T14:38:42;26.00;99.90
22526;DHT22;11429;50.842;4.386;2023-07-28T14:41:08;26.20;99.90
22526;DHT22;11429;50.842;4.386;2023-07-28T14:43:34;25.80;99.90
22526;DHT22;11429;50.842;4.386;2023-07-28T14:46:00;25.70;99.90
22526;DHT22;11429;50.842;4.386;2023-07-28T14:48:26;25.50;99.90
22526;DHT22;11429;50.842;4.386;2023-07-28T14:50:51;25.40;99.90
22526;DHT22;11429;50.842;4.386;2023-07-28T14:53:34;25.30;99.90
22526;DHT22;11429;50.842;4.386;2023-07-28T14:56:01;25.20;99.90
22526;DHT22;11429;50.842;4.386;2023-07-28T14:58:28;25.50;99.90
22526;DHT22;11429;50.842;4.386;2023-07-28T15:00:54;25.30;99.90
22526;DHT22;11429;50.842;4.386;2023-07-28T15:03:20;25.20;99.90
22526;DHT22;11429;50.842;4.386;2023-07-28T15:05:46;25.20;99.90
22526;DHT22;11429;50.842;4.386;2023-07-28T15:08:13;25.40;99.90
22526;DHT22;11429;50.842;4.386;2023-07-28T15:10:38;25.40;99.90
22526;DHT22;11429;50.842;4.386;2023-07-28T15:13:04;25.20;99.90
22526;DHT22;11429;50.842;4.386;2023-07-28T15:15:30;25.20;99.90
22526;DHT22;11429;50.842;4.386;2023-07-28T15:17:55;25.60;99.90
22526;DHT22;11429;50.842;4.386;2023-07-28T15:20:21;25.80;99.90
22526;DHT22;11429;50.842;4.386;2023-07-28T15:22:48;26.10;99.90
22526;DHT22;11429;50.842;4.386;2023-07-28T15:25:14;25.50;99.90
22526;DHT22;11429;50.842;4.386;2023-07-28T15:27:42;25.30;99.90
22526;DHT22;11429;50.842;4.386;2023-07-28T15:30:09;25.30;99.90
22526;DHT22;11429;50.842;4.386;2023-07-28T15:32:35;25.60;99.90
22526;DHT22;11429;50.842;4.386;2023-07-28T15:35:01;25.60;99.90
22526;DHT22;11429;50.842;4.386;2023-07-28T15:37:29;25.70;99.90
22526;DHT22;11429;50.842;4.386;2023-07-28T15:39:55;25.60;99.90
22526;DHT22;11429;50.842;4.386;2023-07-28T15:42:21;25.60;99.90
22526;DHT22;11429;50.842;4.386;2023-07-28T15:44:47;25.50;99.90
22526;DHT22;11429;50.842;4.386;2023-07-28T15:47:12;25.40;99.90
22526;DHT22;11429;50.842;4.386;2023-07-28T15:49:38;25.40;99.90
22526;DHT22;11429;50.842;4.386;2023-07-28T15:52:04;25.50;99.90